Time;durP1;ratioP1;P1;durP2;ratioP2;P2;SDS_P1;SDS_P2;PMS_P1;PMS_P2;Temp;Humidity;BMP_temperature;BMP_pressure;BME280_temperature;BME280_humidity;BME280_pressure;Samples;Min_cycle;Max_cycle;Signal;HPM_P1;HPM_P2
2023/03/24 00:02:05;;;;;;;10.05;4.20;;;11.20;99.90;;;;;;4949785;29;20082;-86
2023/03/24 00:04:32;;;;;;;12.73;4.22;;;12.40;99.90;;;;;;4921858;29;20055;-85
2023/03/24 00:07:00;;;;;;;9.98;3.75;;;11.20;99.90;;;;;;4923416;29;20051;-85
2023/03/24 00:09:28;;;;;;;10.70;4.05;;;13.40;99.90;;;;;;4923032;29;20511;-86
2023/03/24 00:11:55;;;;;;;6.65;4.13;;;11.10;99.90;;;;;;4931289;28;20523;-86
2023/03/24 00:14:22;;;;;;;15.57;3.67;;;12.80;99.90;;;;;;4924221;28;20047;-85
2023/03/24 00:16:48;;;;;;;9.07;3.75;;;;;;;;;;4938465;28;20673;-85
2023/03/24 00:19:15;;;;;;;9.38;3.90;;;11.10;99.90;;;;;;4924694;28;20102;-85
2023/03/24 00:21:42;;;;;;;6.55;3.78;;;12.60;99.90;;;;;;4941365;28;20403;-85
2023/03/24 00:24:10;;;;;;;7.70;3.90;;;11.20;99.90;;;;;;4943398;28;20043;-86
2023/03/24 00:26:37;;;;;;;8.23;3.88;;;11.60;99.90;;;;;;4909824;28;20047;-85
2023/03/24 00:29:05;;;;;;;8.95;4.45;;;11.10;99.90;;;;;;4947998;28;20086;-86
2023/03/24 00:31:52;;;;;;;9.13;4.15;;;11.10;99.90;;;;;;4932514;29;20436;-85
2023/03/24 00:34:20;;;;;;;9.00;3.08;;;11.10;99.90;;;;;;4930418;29;20047;-85
2023/03/24 00:36:50;;;;;;;8.57;3.30;;;12.60;99.90;;;;;;4930246;29;20040;-85
2023/03/24 00:39:18;;;;;;;8.35;3.85;;;11.50;99.90;;;;;;4930803;29;20048;-85
2023/03/24 00:41:46;;;;;;;5.93;3.70;;;11.10;99.90;;;;;;4914694;29;20134;-85
2023/03/24 00:44:19;;;;;;;9.00;3.75;;;13.10;99.90;;;;;;4930272;28;20058;-85
2023/03/24 00:46:54;;;;;;;9.02;4.13;;;11.10;99.90;;;;;;4929325;29;20055;-85
2023/03/24 00:49:43;;;;;;;9.10;3.63;;;11.10;99.90;;;;;;4929572;29;20058;-85
2023/03/24 00:52:13;;;;;;;8.23;3.50;;;11.10;99.90;;;;;;4931432;29;20090;-85
2023/03/24 00:54:39;;;;;;;5.93;3.65;;;11.20;99.90;;;;;;4949359;29;20110;-85
2023/03/24 00:57:06;;;;;;;9.32;3.60;;;12.80;99.90;;;;;;4947325;28;20414;-85
2023/03/24 00:59:41;;;;;;;7.03;3.05;;;11.70;99.90;;;;;;4928688;28;20070;-86
2023/03/24 01:02:10;;;;;;;6.40;3.08;;;11.50;99.90;;;;;;4930909;29;20068;-85
2023/03/24 01:04:38;;;;;;;6.50;3.50;;;13.60;99.90;;;;;;4928427;29;20040;-85
2023/03/24 01:07:04;;;;;;;5.38;3.10;;;;;;;;;;4917096;29;20047;-85
2023/03/24 01:09:30;;;;;;;6.80;3.28;;;11.20;99.90;;;;;;4929576;29;20047;-85
2023/03/24 01:11:56;;;;;;;6.10;2.97;;;11.20;99.90;;;;;;4932975;29;20514;-85
2023/03/24 01:14:23;;;;;;;6.80;3.20;;;12.40;99.90;;;;;;4917006;29;20113;-86
2023/03/24 01:16:48;;;;;;;6.15;2.63;;;13.50;99.90;;;;;;4932525;29;20432;-85
2023/03/24 01:19:15;;;;;;;5.93;3.33;;;11.20;99.90;;;;;;4931142;29;20209;-85
2023/03/24 01:21:41;;;;;;;6.68;3.20;;;11.20;99.90;;;;;;4946177;29;20058;-85
2023/03/24 01:24:07;;;;;;;5.13;3.08;;;11.20;99.90;;;;;;4928942;29;20039;-86
2023/03/24 01:26:33;;;;;;;6.50;2.95;;;11.20;99.90;;;;;;4951097;28;20119;-85
2023/03/24 01:28:58;;;;;;;4.22;2.97;;;13.00;99.90;;;;;;4919017;29;20104;-85
2023/03/24 01:31:24;;;;;;;4.70;2.53;;;11.20;99.90;;;;;;4933665;29;20086;-85
2023/03/24 01:33:50;;;;;;;11.95;2.97;;;11.20;99.90;;;;;;4949868;28;20114;-86
2023/03/24 01:36:16;;;;;;;5.75;3.53;;;12.50;99.90;;;;;;4919821;29;20051;-85
2023/03/24 01:38:41;;;;;;;7.47;2.42;;;12.40;99.90;;;;;;4931709;29;20407;-85
2023/03/24 01:41:07;;;;;;;5.15;2.60;;;13.80;99.90;;;;;;4950562;28;20047;-86
2023/03/24 01:43:34;;;;;;;6.10;2.67;;;12.80;99.90;;;;;;4935453;29;20054;-85
2023/03/24 01:46:16;;;;;;;8.45;3.25;;;12.10;99.90;;;;;;4927816;29;20146;-85
2023/03/24 01:48:44;;;;;;;4.45;2.75;;;11.20;99.90;;;;;;4909438;29;20135;-85
2023/03/24 01:51:35;;;;;;;7.03;2.88;;;11.20;99.90;;;;;;4910788;29;20054;-85
2023/03/24 01:54:26;;;;;;;4.07;2.28;;;11.10;99.90;;;;;;4919458;29;20106;-85
2023/03/24 01:57:14;;;;;;;5.97;3.08;;;13.80;99.90;;;;;;4914684;29;20054;-85
2023/03/24 01:59:43;;;;;;;4.47;2.53;;;11.40;99.90;;;;;;4949363;29;20059;-85
2023/03/24 02:02:12;;;;;;;3.38;2.75;;;12.80;99.90;;;;;;4933104;29;20050;-85
2023/03/24 02:04:44;;;;;;;4.65;2.92;;;11.10;99.90;;;;;;4916768;28;20090;-85
2023/03/24 02:07:22;;;;;;;5.43;3.30;;;11.20;99.90;;;;;;4932302;29;20066;-86
2023/03/24 02:09:49;;;;;;;7.00;2.85;;;11.20;99.90;;;;;;4946679;29;20055;-85
2023/03/24 02:12:15;;;;;;;8.43;2.67;;;11.60;99.90;;;;;;4917470;29;20058;-85
2023/03/24 02:14:41;;;;;;;7.03;3.10;;;13.60;99.90;;;;;;4951688;29;20062;-85
2023/03/24 02:17:36;;;;;;;3.60;2.85;;;11.20;99.90;;;;;;4952482;28;20051;-85
2023/03/24 02:20:28;;;;;;;5.45;3.00;;;12.00;99.90;;;;;;4933588;29;20039;-85
2023/03/24 02:23:13;;;;;;;6.05;2.53;;;11.20;99.90;;;;;;4950179;28;20145;-84
2023/03/24 02:25:42;;;;;;;5.68;2.78;;;11.20;99.90;;;;;;4952074;29;20058;-85
2023/03/24 02:28:33;;;;;;;3.45;2.63;;;13.40;99.90;;;;;;4950162;29;20564;-85
2023/03/24 02:31:13;;;;;;;8.27;2.15;;;11.20;99.90;;;;;;4947389;28;20082;-83
2023/03/24 02:33:45;;;;;;;4.53;2.85;;;11.30;99.90;;;;;;4926694;29;20051;-83
2023/03/24 02:36:53;;;;;;;4.82;2.90;;;13.60;99.90;;;;;;4950283;28;20475;-83
2023/03/24 02:39:42;;;;;;;2.85;2.58;;;11.20;99.90;;;;;;4916776;29;20063;-83
2023/03/24 02:42:39;;;;;;;7.03;2.40;;;11.20;99.90;;;;;;4950101;29;20055;-84
2023/03/24 02:45:33;;;;;;;3.58;2.30;;;13.10;99.90;;;;;;4931035;29;20752;-84
2023/03/24 02:48:31;;;;;;;9.87;2.90;;;11.30;99.90;;;;;;4942498;29;20111;-84
2023/03/24 02:51:10;;;;;;;5.78;3.08;;;11.30;99.90;;;;;;4946758;29;20097;-84
2023/03/24 02:53:54;;;;;;;3.58;2.88;;;13.60;99.90;;;;;;4945532;28;20072;-85
2023/03/24 02:56:48;;;;;;;5.22;2.97;;;11.30;99.90;;;;;;4943773;28;20696;-84
2023/03/24 02:59:55;;;;;;;4.60;2.90;;;11.20;99.90;;;;;;4942989;29;20062;-84
2023/03/24 03:02:31;;;;;;;5.18;2.90;;;11.30;99.90;;;;;;4841925;29;20326;-84
2023/03/24 03:05:12;;;;;;;4.70;2.70;;;11.30;99.90;;;;;;4938541;29;20051;-84
2023/03/24 03:07:40;;;;;;;6.03;3.03;;;11.20;99.90;;;;;;4932802;29;20053;-83
2023/03/24 03:10:16;;;;;;;5.45;2.80;;;11.00;99.90;;;;;;4930337;29;20055;-84
2023/03/24 03:12:45;;;;;;;3.25;2.20;;;10.40;99.90;;;;;;4931711;29;20054;-84
2023/03/24 03:15:15;;;;;;;5.00;2.78;;;11.70;99.90;;;;;;4918917;29;20051;-84
2023/03/24 03:17:47;;;;;;;5.50;2.55;;;12.30;99.90;;;;;;4918770;29;20054;-84
2023/03/24 03:20:23;;;;;;;2.40;2.20;;;11.40;99.90;;;;;;4932093;29;20055;-85
2023/03/24 03:23:03;;;;;;;3.78;1.60;;;11.40;99.90;;;;;;4910662;29;20118;-84
2023/03/24 03:25:37;;;;;;;1.65;1.50;;;12.00;99.90;;;;;;4918599;29;20051;-84
2023/03/24 03:28:04;;;;;;;3.53;1.55;;;11.50;99.90;;;;;;4948745;29;20047;-84
2023/03/24 03:30:40;;;;;;;3.67;1.20;;;11.50;99.90;;;;;;4950036;29;20056;-85
2023/03/24 03:33:17;;;;;;;5.30;1.58;;;11.50;99.90;;;;;;4912387;28;20048;-84
2023/03/24 03:35:51;;;;;;;4.05;0.88;;;11.40;99.90;;;;;;4910233;29;20079;-84
2023/03/24 03:38:53;;;;;;;1.15;1.05;;;14.20;99.90;;;;;;4932217;28;20055;-85
2023/03/24 03:41:19;;;;;;;3.13;1.42;;;11.40;99.90;;;;;;4929024;29;20051;-85
2023/03/24 03:43:47;;;;;;;1.58;1.08;;;11.40;99.90;;;;;;4911682;29;20055;-86
2023/03/24 03:46:14;;;;;;;2.72;1.02;;;13.80;99.90;;;;;;4927848;29;20882;-84
2023/03/24 03:48:40;;;;;;;3.80;1.80;;;12.80;99.90;;;;;;4928024;29;20051;-85
2023/03/24 03:51:07;;;;;;;5.60;2.08;;;13.10;99.90;;;;;;4929911;29;20079;-85
2023/03/24 03:53:44;;;;;;;4.30;2.00;;;11.00;99.90;;;;;;4914060;29;20055;-86
2023/03/24 03:56:10;;;;;;;4.75;1.65;;;14.00;99.90;;;;;;4929363;29;20435;-85
2023/03/24 03:58:36;;;;;;;4.45;1.20;;;13.20;99.90;;;;;;4948945;28;20043;-85
2023/03/24 04:01:02;;;;;;;7.05;1.73;;;10.90;99.90;;;;;;4930741;29;20389;-85
2023/03/24 04:03:45;;;;;;;3.38;1.13;;;10.80;99.90;;;;;;4932788;29;20051;-85
2023/03/24 04:06:43;;;;;;;6.15;1.48;;;10.70;99.90;;;;;;4948377;29;20077;-85
2023/03/24 04:09:34;;;;;;;7.97;1.23;;;10.70;99.90;;;;;;4914909;28;20047;-85
2023/03/24 04:12:08;;;;;;;7.38;1.70;;;10.60;99.90;;;;;;4944963;28;20059;-85
2023/03/24 04:14:55;;;;;;;4.53;1.10;;;10.50;99.90;;;;;;4913760;29;20051;-85
2023/03/24 04:17:52;;;;;;;5.88;0.80;;;10.50;99.90;;;;;;4916624;29;20566;-85
2023/03/24 04:20:27;;;;;;;7.25;1.27;;;10.40;99.90;;;;;;4929083;29;20055;-85
2023/03/24 04:23:08;;;;;;;7.05;1.13;;;11.00;99.90;;;;;;4932143;29;20099;-86
2023/03/24 04:25:57;;;;;;;6.97;0.82;;;10.40;99.90;;;;;;4930831;29;20063;-86
2023/03/24 04:28:32;;;;;;;9.15;1.30;;;10.40;99.90;;;;;;4913911;29;20082;-85
2023/03/24 04:31:26;;;;;;;8.35;1.23;;;10.30;99.90;;;;;;4915948;28;20115;-85
2023/03/24 04:34:02;;;;;;;6.97;1.58;;;12.00;99.90;;;;;;4917884;29;20047;-85
2023/03/24 04:36:41;;;;;;;6.03;1.17;;;10.20;99.90;;;;;;4924929;29;20069;-86
2023/03/24 04:39:17;;;;;;;7.10;0.95;;;10.40;99.90;;;;;;4922038;29;20225;-86
2023/03/24 04:41:46;;;;;;;10.02;1.85;;;10.00;99.90;;;;;;4921269;29;20047;-86
2023/03/24 04:44:20;;;;;;;6.80;1.48;;;10.50;99.90;;;;;;4938289;28;20051;-85
2023/03/24 04:46:49;;;;;;;6.63;1.42;;;10.70;99.90;;;;;;4938581;28;20131;-85
2023/03/24 04:49:14;;;;;;;7.35;1.27;;;10.00;99.90;;;;;;4923575;29;20114;-86
2023/03/24 04:51:41;;;;;;;9.27;1.50;;;12.40;99.90;;;;;;4942861;28;20058;-86
2023/03/24 04:54:07;;;;;;;7.55;2.13;;;12.70;99.90;;;;;;4893647;29;20050;-85
2023/03/24 04:56:42;;;;;;;10.50;1.40;;;11.00;99.90;;;;;;4923375;29;20051;-85
2023/03/24 04:59:08;;;;;;;8.35;1.35;;;9.70;99.90;;;;;;4908040;29;20134;-85
2023/03/24 05:01:36;;;;;;;11.02;2.03;;;11.30;99.90;;;;;;4906051;29;20078;-85
2023/03/24 05:04:03;;;;;;;7.70;1.67;;;12.10;99.90;;;;;;4928235;29;20419;-85
2023/03/24 05:06:30;;;;;;;7.10;1.40;;;9.70;99.90;;;;;;4933968;29;20051;-85
2023/03/24 05:08:58;;;;;;;5.38;1.30;;;11.30;99.90;;;;;;4922256;29;20138;-85
2023/03/24 05:11:26;;;;;;;10.27;1.70;;;9.60;99.90;;;;;;4949254;29;20095;-85
2023/03/24 05:14:03;;;;;;;10.18;1.40;;;9.70;99.90;;;;;;4932285;29;20785;-85
2023/03/24 05:16:29;;;;;;;9.60;1.50;;;9.60;99.90;;;;;;4931249;29;20059;-85
2023/03/24 05:18:55;;;;;;;11.38;1.73;;;12.30;99.90;;;;;;4916519;29;20048;-85
2023/03/24 05:21:21;;;;;;;9.27;2.10;;;10.60;99.90;;;;;;4931881;29;20059;-85
2023/03/24 05:23:46;;;;;;;8.15;2.45;;;12.20;99.90;;;;;;4916234;29;20083;-85
2023/03/24 05:26:12;;;;;;;12.27;2.80;;;9.60;99.90;;;;;;4931024;29;20058;-85
2023/03/24 05:28:38;;;;;;;10.10;1.98;;;9.60;99.90;;;;;;4915456;29;20050;-85
2023/03/24 05:31:04;;;;;;;9.95;2.42;;;10.40;99.90;;;;;;4930068;28;20043;-85
2023/03/24 05:33:30;;;;;;;13.40;2.55;;;9.50;99.90;;;;;;4956217;28;20048;-85
2023/03/24 05:35:55;;;;;;;12.15;2.03;;;11.20;99.90;;;;;;4938589;28;20080;-85
2023/03/24 05:38:21;;;;;;;12.95;2.30;;;9.60;99.90;;;;;;4937488;28;20659;-85
2023/03/24 05:40:47;;;;;;;13.13;2.60;;;12.10;99.90;;;;;;4922108;28;20490;-85
2023/03/24 05:43:14;;;;;;;10.82;2.42;;;9.50;99.90;;;;;;4935423;28;20074;-85
2023/03/24 05:45:40;;;;;;;15.95;2.88;;;10.90;99.90;;;;;;4925486;28;20097;-84
2023/03/24 05:48:06;;;;;;;10.32;2.50;;;9.50;99.90;;;;;;4910311;28;20130;-85
2023/03/24 05:50:32;;;;;;;10.57;2.70;;;9.50;99.90;;;;;;4910757;28;20047;-85
2023/03/24 05:52:57;;;;;;;11.45;2.30;;;9.50;99.90;;;;;;4945555;28;20051;-85
2023/03/24 05:55:24;;;;;;;9.48;2.10;;;12.60;99.90;;;;;;4927339;28;20122;-85
2023/03/24 05:57:50;;;;;;;9.65;2.40;;;9.70;99.90;;;;;;4925461;29;20047;-85
2023/03/24 06:00:16;;;;;;;12.98;2.42;;;9.40;99.90;;;;;;4924212;28;20055;-85
2023/03/24 06:02:45;;;;;;;15.18;2.78;;;9.40;99.90;;;;;;4908502;28;20051;-85
2023/03/24 06:05:11;;;;;;;15.95;2.40;;;9.90;99.90;;;;;;4923594;28;20054;-84
2023/03/24 06:07:41;;;;;;;10.15;2.13;;;7.20;99.90;;;;;;4930489;29;20098;-86
2023/03/24 06:10:08;;;;;;;16.40;2.40;;;10.40;99.90;;;;;;4912156;29;20043;-84
2023/03/24 06:12:34;;;;;;;15.20;2.10;;;9.30;99.90;;;;;;4924935;29;20437;-83
2023/03/24 06:15:00;;;;;;;13.15;2.38;;;9.30;99.90;;;;;;4934521;29;20106;-83
2023/03/24 06:17:29;;;;;;;12.00;2.30;;;7.40;99.90;;;;;;4917678;29;20065;-83
2023/03/24 06:20:02;;;;;;;14.07;3.72;;;10.70;99.90;;;;;;4933262;29;20388;-84
2023/03/24 06:22:29;;;;;;;11.25;2.03;;;11.90;99.90;;;;;;4935480;29;20146;-83
2023/03/24 06:24:55;;;;;;;13.85;1.98;;;9.40;99.90;;;;;;4900728;29;20392;-83
2023/03/24 06:27:28;;;;;;;11.23;2.17;;;12.40;99.90;;;;;;4932094;29;20061;-86
2023/03/24 06:29:59;;;;;;;14.45;1.92;;;11.90;99.90;;;;;;4910536;29;20055;-86
2023/03/24 06:32:38;;;;;;;19.10;3.53;;;9.30;99.90;;;;;;4930263;29;20051;-85
2023/03/24 06:35:21;;;;;;;12.13;2.35;;;9.90;99.90;;;;;;4926411;29;20085;-85
2023/03/24 06:37:46;;;;;;;9.05;2.38;;;10.30;99.90;;;;;;4235890;29;10000726;-85
2023/03/24 06:40:14;;;;;;;12.10;2.40;;;9.30;99.90;;;;;;4910914;29;21106;-81
2023/03/24 06:42:43;;;;;;;13.50;3.05;;;9.30;99.90;;;;;;4912539;29;20555;-88
2023/03/24 06:45:09;;;;;;;14.52;2.65;;;11.10;99.90;;;;;;4914828;29;20052;-87
2023/03/24 06:47:36;;;;;;;14.38;3.45;;;9.30;99.90;;;;;;4918093;29;20055;-87
2023/03/24 06:50:02;;;;;;;18.55;3.47;;;9.40;99.90;;;;;;4935771;29;20051;-87
2023/03/24 06:52:27;;;;;;;15.63;2.45;;;10.10;99.90;;;;;;4909760;29;20423;-88
2023/03/24 06:54:55;;;;;;;15.05;2.38;;;9.20;99.90;;;;;;4949419;29;20055;-88
2023/03/24 06:57:21;;;;;;;17.95;2.80;;;;;;;;;;4917445;29;20070;-88
2023/03/24 06:59:47;;;;;;;20.42;3.25;;;9.40;99.90;;;;;;4933891;28;20496;-88
2023/03/24 07:02:14;;;;;;;15.20;2.45;;;;;;;;;;4932305;28;20051;-88
2023/03/24 07:04:40;;;;;;;15.77;2.85;;;9.40;99.90;;;;;;4935638;29;20047;-89
2023/03/24 07:07:05;;;;;;;17.98;2.60;;;12.30;99.90;;;;;;4949179;29;20094;-85
2023/03/24 07:09:31;;;;;;;20.77;3.03;;;12.40;99.90;;;;;;4943064;29;20055;-85
2023/03/24 07:11:57;;;;;;;15.90;3.40;;;12.20;99.90;;;;;;4951254;29;20122;-85
2023/03/24 07:14:25;;;;;;;14.88;3.28;;;9.50;99.90;;;;;;4950861;29;20485;-85
2023/03/24 07:16:51;;;;;;;12.93;2.08;;;9.50;99.90;;;;;;4951367;29;20132;-85
2023/03/24 07:19:17;;;;;;;18.45;3.00;;;12.60;99.90;;;;;;4934903;29;20126;-85
2023/03/24 07:21:43;;;;;;;12.23;2.13;;;9.80;99.90;;;;;;4951990;29;20130;-85
2023/03/24 07:24:09;;;;;;;21.10;4.13;;;11.50;99.90;;;;;;4951322;28;20050;-84
2023/03/24 07:26:35;;;;;;;20.48;3.53;;;10.30;99.90;;;;;;4919238;29;20105;-84
2023/03/24 07:29:00;;;;;;;21.52;2.75;;;12.10;99.90;;;;;;4950226;29;20080;-85
2023/03/24 07:31:26;;;;;;;20.75;3.70;;;9.50;99.90;;;;;;4951982;29;20132;-85
2023/03/24 07:33:52;;;;;;;17.92;3.30;;;10.00;99.90;;;;;;4951621;29;20132;-85
2023/03/24 07:36:17;;;;;;;20.98;3.90;;;11.70;99.90;;;;;;4950200;29;20059;-85
2023/03/24 07:38:43;;;;;;;11.45;2.60;;;12.40;99.90;;;;;;4952222;29;20586;-85
2023/03/24 07:41:09;;;;;;;13.85;2.40;;;9.80;99.90;;;;;;4951130;29;20035;-84
2023/03/24 07:43:35;;;;;;;14.40;2.50;;;9.70;99.90;;;;;;4951152;29;20055;-85
2023/03/24 07:46:01;;;;;;;22.10;3.60;;;;;;;;;;4951675;29;20043;-85
2023/03/24 07:48:29;;;;;;;20.58;3.50;;;9.70;99.90;;;;;;4950670;29;20082;-86
2023/03/24 07:50:55;;;;;;;16.92;3.63;;;11.30;99.90;;;;;;4918805;29;20458;-85
2023/03/24 07:53:21;;;;;;;21.50;4.78;;;12.30;99.90;;;;;;4934342;29;20048;-85
2023/03/24 07:55:46;;;;;;;16.60;3.10;;;9.70;99.90;;;;;;4932817;29;20051;-85
2023/03/24 07:58:12;;;;;;;21.85;3.83;;;10.50;99.90;;;;;;4917951;29;20396;-85
2023/03/24 08:00:38;;;;;;;27.75;3.75;;;9.90;99.90;;;;;;4951558;29;20039;-86
2023/03/24 08:03:04;;;;;;;21.83;3.88;;;12.70;99.90;;;;;;4918002;29;20411;-84
2023/03/24 08:05:30;;;;;;;19.67;3.63;;;11.20;99.90;;;;;;4918793;29;20082;-85
2023/03/24 08:07:57;;;;;;;18.38;2.70;;;10.60;99.90;;;;;;4951030;29;20499;-85
2023/03/24 08:10:32;;;;;;;24.23;4.03;;;12.90;99.90;;;;;;4932752;29;20059;-85
2023/03/24 08:12:58;;;;;;;25.58;3.75;;;11.10;99.90;;;;;;4934092;29;20055;-85
2023/03/24 08:15:26;;;;;;;21.60;3.47;;;12.80;99.90;;;;;;4933786;29;20047;-85
2023/03/24 08:17:52;;;;;;;21.02;3.92;;;12.50;99.90;;;;;;4917207;29;20055;-85
2023/03/24 08:20:20;;;;;;;16.17;2.92;;;9.90;99.90;;;;;;4932860;29;20518;-85
2023/03/24 08:22:48;;;;;;;16.33;3.28;;;9.90;99.90;;;;;;4943559;29;20051;-85
2023/03/24 08:25:16;;;;;;;24.73;3.75;;;12.60;99.90;;;;;;4916753;29;20047;-84
2023/03/24 08:27:45;;;;;;;21.08;3.95;;;10.00;99.90;;;;;;4933859;29;20091;-85
2023/03/24 08:30:24;;;;;;;20.13;3.50;;;12.00;99.90;;;;;;4932602;29;20495;-84
2023/03/24 08:32:56;;;;;;;20.77;3.55;;;9.70;99.90;;;;;;4912996;29;20039;-85
2023/03/24 08:35:28;;;;;;;24.63;4.10;;;10.20;99.90;;;;;;4932776;29;20058;-85
2023/03/24 08:37:54;;;;;;;22.70;4.22;;;13.20;99.90;;;;;;4949311;29;20051;-85
2023/03/24 08:40:22;;;;;;;29.58;3.67;;;10.20;99.90;;;;;;4933370;29;20062;-85
2023/03/24 08:42:51;;;;;;;17.52;3.03;;;12.80;99.90;;;;;;4910652;29;20039;-85
2023/03/24 08:45:19;;;;;;;22.55;3.63;;;12.70;99.90;;;;;;4916472;29;20055;-84
2023/03/24 08:47:46;;;;;;;22.88;4.03;;;10.30;99.90;;;;;;4933623;29;20079;-85
2023/03/24 08:50:12;;;;;;;16.13;3.83;;;10.30;99.90;;;;;;4949963;29;20054;-85
2023/03/24 08:52:38;;;;;;;25.25;3.28;;;13.00;99.90;;;;;;4932821;29;20055;-85
2023/03/24 08:55:04;;;;;;;27.77;4.45;;;10.90;99.90;;;;;;4917578;29;20073;-84
2023/03/24 08:57:30;;;;;;;17.42;3.85;;;10.30;99.90;;;;;;4917158;29;20396;-84
2023/03/24 08:59:56;;;;;;;25.23;5.40;;;10.40;99.90;;;;;;4916678;29;20515;-84
2023/03/24 09:02:22;;;;;;;18.40;3.70;;;11.40;99.90;;;;;;4933361;29;20061;-85
2023/03/24 09:04:52;;;;;;;28.20;3.72;;;10.30;99.90;;;;;;4932006;29;20352;-84
2023/03/24 09:07:18;;;;;;;15.05;3.22;;;10.50;99.90;;;;;;4932346;29;20058;-84
2023/03/24 09:09:44;;;;;;;22.65;3.85;;;10.50;99.90;;;;;;4933566;29;20424;-85
2023/03/24 09:12:09;;;;;;;18.73;3.63;;;13.60;99.90;;;;;;4932877;29;20058;-85
2023/03/24 09:14:35;;;;;;;24.00;3.42;;;10.20;99.90;;;;;;4932124;29;20039;-84
2023/03/24 09:17:01;;;;;;;21.30;4.00;;;;;;;;;;4932556;29;20047;-85
2023/03/24 09:19:26;;;;;;;17.60;3.63;;;10.20;99.90;;;;;;4932630;29;20452;-84
2023/03/24 09:21:52;;;;;;;22.42;3.58;;;10.20;99.90;;;;;;4933280;29;20055;-84
2023/03/24 09:24:18;;;;;;;17.95;3.35;;;8.70;99.90;;;;;;4916887;29;20110;-85
2023/03/24 09:26:43;;;;;;;21.05;3.17;;;12.90;99.90;;;;;;4932666;29;20055;-85
2023/03/24 09:29:09;;;;;;;17.23;2.72;;;12.70;99.90;;;;;;4947053;29;20478;-84
2023/03/24 09:31:35;;;;;;;21.77;3.17;;;12.80;99.90;;;;;;4917290;29;20059;-84
2023/03/24 09:34:02;;;;;;;16.35;3.17;;;10.10;99.90;;;;;;4932213;29;20089;-84
2023/03/24 09:36:27;;;;;;;21.15;3.33;;;10.10;99.90;;;;;;4950341;29;20055;-85
2023/03/24 09:38:53;;;;;;;20.67;3.30;;;11.20;99.90;;;;;;4932891;29;20474;-84
2023/03/24 09:41:27;;;;;;;21.05;2.92;;;10.60;99.90;;;;;;4948783;29;20055;-85
2023/03/24 09:44:02;;;;;;;;;;;11.90;99.90;;;;;;4910597;29;20495;-84
2023/03/24 09:46:41;;;;;;;18.75;3.03;;;10.60;99.90;;;;;;4933556;29;20290;-84
2023/03/24 09:49:15;;;;;;;16.23;3.42;;;10.70;99.90;;;;;;4952895;29;20515;-85
2023/03/24 09:51:43;;;;;;;20.38;4.20;;;10.90;99.90;;;;;;4921164;29;20055;-85
2023/03/24 09:54:37;;;;;;;13.95;2.33;;;13.30;99.90;;;;;;4952586;29;20055;-85
2023/03/24 09:57:03;;;;;;;14.15;2.78;;;11.20;99.90;;;;;;4946079;29;20059;-84
2023/03/24 09:59:39;;;;;;;17.95;3.65;;;13.40;99.90;;;;;;4936690;29;20051;-85
2023/03/24 10:02:14;;;;;;;20.20;3.05;;;11.30;99.90;;;;;;4935663;29;20054;-85
2023/03/24 10:04:40;;;;;;;20.88;4.50;;;11.90;99.90;;;;;;4936469;29;20499;-85
2023/03/24 10:07:30;;;;;;;18.63;3.65;;;13.40;99.90;;;;;;4919940;29;20090;-84
2023/03/24 10:09:58;;;;;;;18.50;3.35;;;11.40;99.90;;;;;;4944897;29;20129;-84
2023/03/24 10:12:38;;;;;;;12.93;3.33;;;12.80;99.90;;;;;;4952439;29;20106;-84
2023/03/24 10:15:15;;;;;;;18.55;4.38;;;12.20;99.90;;;;;;4920197;29;20051;-84
2023/03/24 10:18:11;;;;;;;12.45;2.90;;;11.60;99.90;;;;;;4934292;29;20051;-84
2023/03/24 10:21:10;;;;;;;21.75;4.40;;;11.60;99.90;;;;;;4920572;29;20059;-84
2023/03/24 10:24:03;;;;;;;15.52;3.65;;;11.80;99.90;;;;;;4936022;29;20055;-84
2023/03/24 10:26:45;;;;;;;19.40;2.97;;;11.80;99.90;;;;;;4935589;29;20162;-84
2023/03/24 10:29:22;;;;;;;13.90;2.78;;;12.20;99.90;;;;;;4953501;29;20078;-85
2023/03/24 10:32:03;;;;;;;17.40;3.10;;;14.00;99.90;;;;;;4919823;29;20051;-85
2023/03/24 10:34:32;;;;;;;16.02;3.25;;;11.80;99.90;;;;;;4936134;29;20047;-84
2023/03/24 10:37:01;;;;;;;15.52;3.03;;;13.20;99.90;;;;;;4934947;29;20507;-84
2023/03/24 10:39:29;;;;;;;14.20;2.85;;;13.00;99.90;;;;;;4950332;29;20122;-84
2023/03/24 10:41:57;;;;;;;20.27;2.90;;;11.80;99.90;;;;;;4949531;29;20047;-83
2023/03/24 10:44:23;;;;;;;12.60;2.72;;;12.10;99.90;;;;;;4944687;29;20452;-85
2023/03/24 10:46:53;;;;;;;16.40;2.88;;;12.20;99.90;;;;;;4933655;29;20090;-85
2023/03/24 10:49:21;;;;;;;17.02;4.05;;;14.00;99.90;;;;;;4948348;29;20074;-84
2023/03/24 10:51:55;;;;;;;19.70;3.45;;;14.60;99.90;;;;;;4947929;29;20043;-83
2023/03/24 10:54:24;;;;;;;17.92;3.17;;;14.80;99.90;;;;;;4917184;28;20102;-84
2023/03/24 10:56:59;;;;;;;18.33;3.00;;;14.20;99.90;;;;;;4917404;29;20051;-84
2023/03/24 10:59:31;;;;;;;17.02;3.33;;;12.20;99.90;;;;;;4948360;28;20495;-85
2023/03/24 11:02:17;;;;;;;21.65;3.45;;;12.30;99.90;;;;;;4918389;29;20459;-85
2023/03/24 11:04:54;;;;;;;17.95;2.85;;;12.40;99.90;;;;;;4934599;29;20075;-87
2023/03/24 11:07:21;;;;;;;17.67;3.53;;;12.40;99.90;;;;;;4932345;29;20567;-83
2023/03/24 11:10:04;;;;;;;12.00;2.53;;;13.40;99.90;;;;;;4916642;29;20050;-85
2023/03/24 11:12:32;;;;;;;16.13;2.88;;;12.40;99.90;;;;;;4917617;29;20055;-85
2023/03/24 11:15:18;;;;;;;16.52;2.75;;;12.30;99.90;;;;;;4916366;29;20146;-84
2023/03/24 11:17:45;;;;;;;15.40;3.13;;;12.30;99.90;;;;;;4948134;29;20574;-83
2023/03/24 11:20:20;;;;;;;10.73;2.38;;;12.30;99.90;;;;;;4915574;29;20066;-84
2023/03/24 11:23:13;;;;;;;12.02;3.05;;;12.30;99.90;;;;;;4931472;29;20202;-83
2023/03/24 11:25:40;;;;;;;23.63;3.75;;;12.40;99.90;;;;;;4949059;29;20341;-85
2023/03/24 11:28:15;;;;;;;16.08;2.63;;;14.80;99.90;;;;;;4934935;29;20333;-83
2023/03/24 11:30:48;;;;;;;17.17;3.17;;;10.40;99.90;;;;;;4919946;29;20420;-84
2023/03/24 11:33:25;;;;;;;16.20;3.20;;;12.80;99.90;;;;;;4933973;29;20601;-84
2023/03/24 11:35:51;;;;;;;14.20;2.80;;;14.90;99.90;;;;;;4911541;29;20127;-84
2023/03/24 11:38:26;;;;;;;16.48;3.28;;;12.90;99.90;;;;;;4947121;29;20679;-85
2023/03/24 11:40:57;;;;;;;15.98;2.90;;;12.90;99.90;;;;;;4931303;29;20047;-87
2023/03/24 11:43:22;;;;;;;16.75;3.83;;;14.90;99.90;;;;;;4948275;29;20071;-86
2023/03/24 11:46:12;;;;;;;15.57;2.50;;;13.10;99.90;;;;;;4918978;29;20055;-87
2023/03/24 11:48:51;;;;;;;17.00;2.85;;;13.20;99.90;;;;;;4918576;29;20051;-85
2023/03/24 11:51:22;;;;;;;18.15;3.35;;;15.70;99.90;;;;;;4906474;29;20070;-83
2023/03/24 11:53:51;;;;;;;12.98;2.63;;;13.70;99.90;;;;;;4918002;29;20039;-85
2023/03/24 11:56:26;;;;;;;14.50;2.42;;;14.00;99.90;;;;;;4932242;29;20071;-85
2023/03/24 11:59:01;;;;;;;12.35;2.72;;;13.50;99.90;;;;;;4932201;29;20468;-84
2023/03/24 12:01:35;;;;;;;15.55;2.75;;;13.60;99.90;;;;;;4949463;29;20054;-87
2023/03/24 12:04:18;;;;;;;15.40;3.00;;;13.50;99.90;;;;;;4915991;29;20083;-86
2023/03/24 12:07:23;;;;;;;20.65;4.03;;;13.50;99.90;;;;;;4943282;29;20098;-87
2023/03/24 12:09:56;;;;;;;;;;;13.60;99.90;;;;;;4915864;29;20052;-84
2023/03/24 12:12:41;;;;;;;18.73;2.38;;;13.90;99.90;;;;;;4932814;29;19922;-83
2023/03/24 12:15:26;;;;;;;13.40;1.77;;;14.80;99.90;;;;;;4928205;29;20051;-84
2023/03/24 12:18:14;;;;;;;10.13;2.00;;;13.20;99.90;;;;;;4934032;29;20078;-84
2023/03/24 12:20:58;;;;;;;18.80;3.08;;;13.10;99.90;;;;;;4918556;29;20400;-84
2023/03/24 12:23:34;;;;;;;15.45;2.67;;;13.20;99.90;;;;;;4933212;29;20387;-83
2023/03/24 12:26:29;;;;;;;14.70;2.63;;;14.20;99.90;;;;;;4912942;29;20055;-85
2023/03/24 12:29:16;;;;;;;10.73;2.10;;;13.50;99.90;;;;;;4926714;29;20047;-84
2023/03/24 12:32:20;;;;;;;15.45;3.42;;;13.50;99.90;;;;;;4916533;29;20055;-85
2023/03/24 12:35:02;;;;;;;23.38;3.15;;;13.30;99.90;;;;;;4886809;29;20062;-85
2023/03/24 12:37:56;;;;;;;12.32;2.75;;;15.20;99.90;;;;;;4914072;29;20051;-86
2023/03/24 12:40:33;;;;;;;12.63;2.13;;;13.70;99.90;;;;;;4932895;29;20051;-84
2023/03/24 12:43:20;;;;;;;13.23;2.92;;;13.70;99.90;;;;;;4931150;29;20448;-85
2023/03/24 12:45:54;;;;;;;19.50;3.30;;;13.80;99.90;;;;;;4931440;29;20521;-84
2023/03/24 12:48:37;;;;;;;14.90;2.67;;;13.80;99.90;;;;;;4918090;29;20616;-84
2023/03/24 12:51:29;;;;;;;7.70;1.30;;;15.80;99.90;;;;;;4917076;29;20067;-84
2023/03/24 12:54:00;;;;;;;11.10;2.30;;;14.00;99.90;;;;;;4925928;29;20039;-85
2023/03/24 12:56:38;;;;;;;12.75;2.60;;;15.50;99.90;;;;;;4916151;29;20055;-83
2023/03/24 12:59:16;;;;;;;13.65;2.65;;;14.00;99.90;;;;;;4926397;29;20086;-86
2023/03/24 13:01:45;;;;;;;12.07;2.67;;;14.10;99.90;;;;;;4916865;29;20039;-84
2023/03/24 13:04:23;;;;;;;13.23;2.50;;;16.70;99.90;;;;;;4932091;29;20317;-85
2023/03/24 13:07:10;;;;;;;9.93;2.33;;;13.90;99.90;;;;;;4932500;29;20055;-84
2023/03/24 13:09:42;;;;;;;10.57;2.38;;;13.90;99.90;;;;;;4950488;29;20452;-85
2023/03/24 13:12:17;;;;;;;11.35;2.30;;;13.90;99.90;;;;;;4916513;29;20102;-83
2023/03/24 13:15:21;;;;;;;13.77;2.80;;;15.00;99.90;;;;;;4913940;29;20055;-83